Aérodrome :
LOGIN :

S'inscrire | Disclaimer

   EN    FR    IT 

 










Légende :    VFR   VFR Marginal   IFR   IFR Intensif   IFR Très Intensif
Visi : 
Plafond : 
>= 8 km
>= 3000ft
5 à 8 km
1000 à 3000 ft
1500m à 5 km
500 à 1000 ft
800 à 1500m
200 à 500 ft
< 800m
< 200 ft
Symboles :   Orages  Brouillard  Fortes neiges  Fortes précipitations  Vent > 20 kt
SIGMETs :   Divers  Orages  Givrage  Turbulence  Onde Orograph.  Cendres Volcan.







- Altitude de l'aérodrome : 1345 ft
- Code IATA : FRZ


ETHF - Fritzlar

DERNIER METAR :
  • 200720Z 24008KT 9999 FEW017 SCT060 BKN130 04/01 Q1019 BLU BLU TEMPO WHT

METARs EXPIRÉS :
  • 200709Z 24006KT 9999 FEW017 SCT028 BKN140 04/01 Q1019 BLU BLU TEMPO WHT
  • 200628Z 23004KT 9999 FEW015 BKN023 04/02 Q1019 WHT BLU TEMPO WHT
  • 200620Z 24004KT 9999 FEW015 SCT020 BKN035 04/02 Q1019 BLU BLU TEMPO WHT
  • 200520Z 25006KT 9999 FEW020 BKN060 04/02 Q1018 BLU BLU TEMPO WHT
  • 200442Z 24005KT 9999 -DZRA FEW017 BKN060 04/03 Q1018 BLU

TAF TAF ETHF
Valide du 20 à 06h jusqu'au 20 à 15h UTC


200515Z 2006/2015 22008KT 9999 NSW FEW025 BKN040
TEMPO 2006/2015 20010KT 6000 -DZRA FEW012 BKN020
Pas de NOTAMs connus pour ce terrain.



MET'MAP, la Météo Aéronautique d'un coup d'oeil ! - Copyright ORBIFLY Décembre 2007 - Disclaimer

ORBIFLY MET'MAP TEAM :

Programmation & Développement : Alexandra Zaïnal
Conception & Développement : Baudouin d'Aumeries
Co-Programmation & Développement : Marc-Olivier Méhu
Soutien technique & logistique : Manuel Goepfert

Contact : metmap@orbifly.com




SOURCES & CREDITS :

   NOAA